Time;durP1;ratioP1;P1;durP2;ratioP2;P2;SDS_P1;SDS_P2;PMS_P1;PMS_P2;Temp;Humidity;BMP_temperature;BMP_pressure;BME280_temperature;BME280_humidity;BME280_pressure;Samples;Min_cycle;Max_cycle;Signal;HPM_P1;HPM_P2
2022/02/09 00:06:49;;;;;;;4.93;3.30;;;10.40;99.90;;;;;;5093319;28;20469;-76
2022/02/09 00:09:08;;;;;;;5.03;3.87;;;10.40;99.90;;;;;;5092744;28;20454;-77
2022/02/09 00:12:01;;;;;;;13.33;4.50;;;10.30;99.90;;;;;;5075029;28;20423;-76
2022/02/09 00:19:39;;;;;;;7.40;3.50;;;10.40;99.90;;;;;;5093673;28;20903;-77
2022/02/09 00:22:21;;;;;;;6.07;4.40;;;10.40;99.90;;;;;;5075009;28;20423;-77
2022/02/09 00:25:04;;;;;;;6.47;4.10;;;10.40;99.90;;;;;;5074976;28;20477;-77
2022/02/09 00:33:01;;;;;;;5.30;4.00;;;10.40;99.90;;;;;;5093027;28;20805;-77
2022/02/09 00:59:53;;;;;;;5.23;3.23;;;10.50;99.90;;;;;;5092858;28;20779;-77
2022/02/09 01:38:09;;;;;;;7.50;4.80;;;10.40;99.90;;;;;;5040769;28;20936;-82
2022/02/09 01:56:56;;;;;;;9.47;5.80;;;10.30;99.90;;;;;;5052729;28;20444;-82
2022/02/09 01:59:21;;;;;;;12.20;7.87;;;10.40;99.90;;;;;;5053044;28;20426;-82
2022/02/09 02:01:47;;;;;;;11.00;6.97;;;10.30;99.90;;;;;;5034642;28;20417;-82
2022/02/09 02:04:13;;;;;;;8.37;6.50;;;10.40;99.90;;;;;;5052472;28;20180;-82
2022/02/09 02:06:42;;;;;;;8.87;6.10;;;10.40;99.90;;;;;;5034331;28;20183;-84
2022/02/09 02:09:08;;;;;;;8.87;6.30;;;10.40;99.90;;;;;;5052209;28;20579;-82
2022/02/09 02:11:51;;;;;;;11.57;7.10;;;10.40;99.90;;;;;;5052425;28;20402;-83
2022/02/09 02:16:51;;;;;;;9.00;6.73;;;10.40;99.90;;;;;;5052219;28;20505;-82
2022/02/09 02:22:09;;;;;;;9.57;6.53;;;10.30;99.90;;;;;;5052668;28;20425;-84
2022/02/09 02:25:01;;;;;;;8.73;6.67;;;10.40;99.90;;;;;;5034033;28;20946;-83
2022/02/09 03:10:35;;;;;;;7.97;6.20;;;10.40;99.90;;;;;;5054803;28;20514;-82
2022/02/09 03:15:42;;;;;;;8.20;6.00;;;10.30;99.90;;;;;;5054634;28;20462;-82
2022/02/09 03:21:03;;;;;;;8.90;6.00;;;10.30;99.90;;;;;;5054648;28;20398;-82
2022/02/09 03:23:44;;;;;;;8.57;6.00;;;10.30;99.90;;;;;;5054982;28;20447;-82
2022/02/09 03:43:02;;;;;;;9.47;5.30;;;10.30;99.90;;;;;;5054535;28;20452;-82
2022/02/09 03:51:22;;;;;;;8.43;4.80;;;10.20;99.90;;;;;;5052491;28;20430;-82
2022/02/09 03:53:58;;;;;;;6.80;4.30;;;10.20;99.90;;;;;;5052507;28;20472;-82
2022/02/09 03:59:08;;;;;;;7.90;4.33;;;10.20;99.90;;;;;;5053680;28;20430;-82
2022/02/09 04:01:37;;;;;;;8.10;4.80;;;10.20;99.90;;;;;;5053220;28;20406;-82
2022/02/09 04:04:03;;;;;;;8.03;3.87;;;10.30;99.90;;;;;;5035430;28;20418;-82
2022/02/09 04:06:33;;;;;;;5.90;3.30;;;10.30;99.90;;;;;;5052926;28;20414;-82
2022/02/09 04:09:01;;;;;;;5.87;3.10;;;10.30;99.90;;;;;;5053145;28;20214;-82
2022/02/09 04:11:32;;;;;;;4.70;3.40;;;10.20;99.90;;;;;;5035286;28;20428;-82
2022/02/09 04:14:17;;;;;;;4.23;3.20;;;10.20;99.90;;;;;;5053058;28;20411;-82
2022/02/09 04:17:09;;;;;;;6.57;3.40;;;10.20;99.90;;;;;;5052982;28;20410;-82
2022/02/09 04:51:57;;;;;;;6.93;3.37;;;10.20;99.90;;;;;;5056263;28;20457;-83
2022/02/09 04:54:29;;;;;;;5.70;3.30;;;10.30;99.90;;;;;;5055854;28;20425;-83
2022/02/09 04:57:09;;;;;;;6.83;3.90;;;10.20;99.90;;;;;;5037724;28;20418;-83
2022/02/09 05:28:28;;;;;;;5.77;4.20;;;10.30;99.90;;;;;;5058179;28;20467;-84
2022/02/09 05:30:54;;;;;;;6.37;4.10;;;10.20;99.90;;;;;;5057192;28;20410;-83
2022/02/09 05:33:21;;;;;;;5.13;4.07;;;10.20;99.90;;;;;;5038972;28;20594;-84
2022/02/09 05:35:47;;;;;;;7.50;3.93;;;10.30;99.90;;;;;;5039057;28;20207;-84
2022/02/09 05:38:13;;;;;;;6.50;4.17;;;10.30;99.90;;;;;;5038935;28;20936;-83
2022/02/09 05:40:40;;;;;;;7.50;4.60;;;10.30;99.90;;;;;;5056332;28;20441;-83
2022/02/09 05:43:08;;;;;;;7.03;4.20;;;10.30;99.90;;;;;;5040451;28;20410;-83
2022/02/09 05:53:18;;;;;;;8.70;4.13;;;10.30;99.90;;;;;;5052225;28;20601;-83
2022/02/09 05:55:47;;;;;;;5.73;4.00;;;10.30;99.90;;;;;;5053962;28;20283;-82
2022/02/09 06:00:56;;;;;;;7.50;3.50;;;10.30;99.90;;;;;;5053766;28;20839;-83
2022/02/09 06:03:21;;;;;;;6.23;4.50;;;10.30;99.90;;;;;;5035906;28;20413;-83
2022/02/09 06:05:47;;;;;;;6.00;4.20;;;10.30;99.90;;;;;;5053367;28;20172;-82
2022/02/09 06:08:13;;;;;;;6.10;4.20;;;10.30;99.90;;;;;;5035309;28;20509;-82
2022/02/09 06:10:40;;;;;;;6.70;4.53;;;10.30;99.90;;;;;;5035219;28;20227;-82
2022/02/09 06:13:15;;;;;;;6.47;4.40;;;10.30;99.90;;;;;;5035052;28;20180;-82
2022/02/09 06:16:01;;;;;;;5.73;3.73;;;10.30;99.90;;;;;;5039281;28;20453;-83
2022/02/09 06:21:12;;;;;;;6.30;3.73;;;10.30;99.90;;;;;;5056825;28;20416;-83
2022/02/09 06:23:38;;;;;;;6.20;4.03;;;10.30;99.90;;;;;;5038458;28;20428;-83
2022/02/09 06:26:05;;;;;;;7.63;3.90;;;10.30;99.90;;;;;;5056274;28;20414;-82
2022/02/09 06:28:31;;;;;;;6.53;3.97;;;10.30;99.90;;;;;;5055887;28;20406;-82
2022/02/09 06:31:00;;;;;;;6.27;4.47;;;10.30;99.90;;;;;;5037316;28;20437;-82
2022/02/09 06:33:26;;;;;;;5.87;3.70;;;10.30;99.90;;;;;;5055508;28;20176;-82
2022/02/09 06:35:54;;;;;;;6.00;3.93;;;10.30;99.90;;;;;;5036700;28;20442;-82
2022/02/09 06:38:20;;;;;;;5.37;3.67;;;10.30;99.90;;;;;;5036706;28;20425;-82
2022/02/09 06:40:51;;;;;;;6.10;4.07;;;10.30;99.90;;;;;;5054832;28;20457;-82
2022/02/09 06:43:17;;;;;;;7.23;3.73;;;10.40;99.90;;;;;;5036796;28;20791;-82
2022/02/09 06:45:43;;;;;;;6.30;4.07;;;10.30;99.90;;;;;;5054596;28;20414;-82
2022/02/09 06:48:17;;;;;;;9.67;4.20;;;10.30;99.90;;;;;;5036605;28;20721;-82
2022/02/09 06:50:52;;;;;;;6.63;4.50;;;10.30;99.90;;;;;;5036640;28;20494;-82
2022/02/09 06:55:58;;;;;;;7.80;4.47;;;10.40;99.90;;;;;;5054402;28;20476;-82
2022/02/09 06:58:45;;;;;;;7.43;3.90;;;10.40;99.90;;;;;;5054112;28;20405;-82
2022/02/09 07:01:11;;;;;;;6.30;3.60;;;10.40;99.90;;;;;;5054286;28;20547;-82
2022/02/09 07:03:37;;;;;;;7.67;4.50;;;10.30;99.90;;;;;;5054256;28;20410;-82
2022/02/09 07:06:03;;;;;;;6.47;3.87;;;10.20;99.90;;;;;;5036353;28;20787;-82
2022/02/09 07:08:29;;;;;;;6.70;4.10;;;10.30;99.90;;;;;;5036651;28;20445;-82
2022/02/09 07:10:55;;;;;;;6.57;4.27;;;10.30;99.90;;;;;;5055747;28;20713;-82
2022/02/09 07:13:21;;;;;;;7.27;4.90;;;10.30;99.90;;;;;;5055288;28;20183;-82
2022/02/09 07:15:50;;;;;;;6.77;3.97;;;10.30;99.90;;;;;;5055344;28;20511;-82
2022/02/09 07:18:17;;;;;;;5.70;3.40;;;10.30;99.90;;;;;;5055336;28;20168;-82
2022/02/09 07:23:39;;;;;;;6.10;4.70;;;10.30;99.90;;;;;;5056273;28;20452;-83
2022/02/09 07:26:11;;;;;;;6.87;4.40;;;10.30;99.90;;;;;;5055739;28;20429;-82
2022/02/09 07:28:38;;;;;;;6.73;4.10;;;10.30;99.90;;;;;;5037299;28;20896;-83
2022/02/09 07:31:06;;;;;;;6.73;4.63;;;10.40;99.90;;;;;;5037368;28;20475;-83
2022/02/09 07:33:33;;;;;;;7.87;4.40;;;10.40;99.90;;;;;;5055165;28;20433;-83
2022/02/09 07:35:59;;;;;;;8.83;5.20;;;10.30;99.90;;;;;;5049237;28;20891;-84
2022/02/09 07:38:26;;;;;;;6.73;4.70;;;10.40;99.90;;;;;;5039719;28;20436;-84
2022/02/09 07:40:56;;;;;;;9.43;5.33;;;10.30;99.90;;;;;;5066682;28;20430;-82
2022/02/09 07:43:27;;;;;;;6.07;4.07;;;10.40;99.90;;;;;;5066657;28;20448;-82
2022/02/09 07:51:00;;;;;;;8.00;4.17;;;10.40;99.90;;;;;;5074759;28;20437;-82
2022/02/09 07:53:36;;;;;;;5.80;3.80;;;10.40;99.90;;;;;;5094202;22;20218;-79
2022/02/09 07:56:02;;;;;;;5.40;3.47;;;10.40;99.90;;;;;;5058267;28;20461;-79
2022/02/09 07:58:28;;;;;;;5.40;3.10;;;10.50;99.90;;;;;;5043372;28;20798;-79
2022/02/09 08:00:53;;;;;;;6.97;4.20;;;10.40;99.90;;;;;;5060595;28;20417;-78
2022/02/09 08:03:19;;;;;;;5.93;3.43;;;10.40;99.90;;;;;;5054120;28;20568;-78
2022/02/09 08:05:44;;;;;;;6.07;3.57;;;10.30;99.90;;;;;;5053144;28;20254;-79
2022/02/09 08:08:10;;;;;;;5.70;3.67;;;10.40;99.90;;;;;;5053004;28;20203;-79
2022/02/09 08:10:57;;;;;;;5.77;3.37;;;10.40;99.90;;;;;;5035474;28;20186;-79
2022/02/09 08:27:39;;;;;;;4.80;2.90;;;10.40;99.90;;;;;;4971606;28;20866;-78
2022/02/09 08:32:55;;;;;;;5.30;3.03;;;10.30;99.90;;;;;;5052466;28;20503;-79
2022/02/09 08:35:21;;;;;;;5.60;3.50;;;10.30;99.90;;;;;;5034419;28;20485;-79
2022/02/09 08:37:47;;;;;;;7.13;3.27;;;10.30;99.90;;;;;;5052135;28;20406;-79
2022/02/09 08:40:17;;;;;;;6.37;3.30;;;10.20;99.90;;;;;;5052709;28;20203;-79
2022/02/09 08:42:42;;;;;;;4.77;2.50;;;10.30;99.90;;;;;;5052734;28;20191;-79
2022/02/09 08:45:09;;;;;;;5.90;3.50;;;10.20;99.90;;;;;;5034639;28;20838;-79
2022/02/09 08:47:35;;;;;;;6.60;2.93;;;10.20;99.90;;;;;;5044127;28;20184;-79
2022/02/09 08:50:03;;;;;;;4.80;2.80;;;10.20;99.90;;;;;;5037863;28;20484;-79
2022/02/09 08:52:29;;;;;;;5.13;3.07;;;10.30;99.90;;;;;;5052012;28;20239;-78
2022/02/09 08:54:55;;;;;;;4.90;2.80;;;10.30;99.90;;;;;;5052199;28;20488;-79
2022/02/09 08:57:21;;;;;;;6.23;3.20;;;10.30;99.90;;;;;;5049445;28;20322;-78
2022/02/09 08:59:49;;;;;;;6.90;4.03;;;10.30;99.90;;;;;;5046651;28;20199;-79
2022/02/09 09:02:17;;;;;;;5.70;3.63;;;10.30;99.90;;;;;;5052031;28;20903;-78
2022/02/09 09:04:55;;;;;;;5.40;3.53;;;10.40;99.90;;;;;;5052202;28;20519;-79
2022/02/09 09:07:30;;;;;;;7.03;4.00;;;10.40;99.90;;;;;;5051699;28;20417;-79
2022/02/09 09:59:53;;;;;;;6.70;4.33;;;10.40;99.90;;;;;;5016144;28;20506;-78
2022/02/09 10:02:15;;;;;;;8.03;4.70;;;10.70;99.90;;;;;;5015517;28;20557;-79
2022/02/09 10:30:53;;;;;;;9.17;5.70;;;10.60;99.90;;;;;;5020321;28;20932;-80
2022/02/09 10:33:16;;;;;;;9.70;5.50;;;10.70;99.90;;;;;;5014903;28;20501;-79
2022/02/09 10:35:53;;;;;;;9.77;5.30;;;10.90;99.90;;;;;;5017128;28;20463;-82
2022/02/09 10:38:24;;;;;;;7.47;4.53;;;11.00;99.90;;;;;;5003315;28;20423;-81
2022/02/09 10:40:53;;;;;;;7.57;4.80;;;11.20;99.90;;;;;;5020766;28;20811;-81
2022/02/09 10:43:31;;;;;;;7.20;5.43;;;11.30;99.90;;;;;;5019985;28;20439;-81
2022/02/09 10:46:09;;;;;;;9.20;5.70;;;11.40;99.90;;;;;;5017794;28;20510;-79
2022/02/09 10:48:45;;;;;;;7.83;4.60;;;11.30;99.90;;;;;;5020395;28;20511;-79
2022/02/09 10:51:29;;;;;;;6.30;3.80;;;11.20;99.90;;;;;;5015647;28;20403;-80
2022/02/09 10:54:17;;;;;;;8.17;4.87;;;11.20;99.90;;;;;;4997377;28;20468;-80
2022/02/09 10:56:47;;;;;;;6.87;4.27;;;11.20;99.90;;;;;;5017914;28;20494;-80
2022/02/09 10:59:15;;;;;;;13.50;4.70;;;11.30;99.90;;;;;;5017449;28;20978;-80
2022/02/09 11:01:43;;;;;;;9.77;4.83;;;11.30;99.90;;;;;;5018905;28;20470;-80
2022/02/09 11:04:09;;;;;;;7.50;4.47;;;11.20;99.90;;;;;;5019406;28;20416;-80
2022/02/09 11:06:37;;;;;;;5.60;4.07;;;11.20;99.90;;;;;;5001116;28;20431;-80
2022/02/09 11:09:05;;;;;;;12.00;4.97;;;11.20;99.90;;;;;;5019321;28;20561;-80
2022/02/09 11:11:31;;;;;;;6.77;3.80;;;11.30;99.90;;;;;;5019856;28;20522;-80
2022/02/09 11:13:57;;;;;;;7.23;4.13;;;11.30;99.90;;;;;;5018490;28;20498;-80
2022/02/09 11:16:25;;;;;;;5.60;3.40;;;11.30;99.90;;;;;;5001073;28;20483;-80
2022/02/09 11:18:54;;;;;;;6.00;3.37;;;11.30;99.90;;;;;;5018511;28;20177;-80
2022/02/09 11:21:31;;;;;;;6.87;4.10;;;11.30;99.90;;;;;;5018620;28;20412;-80
2022/02/09 11:24:00;;;;;;;8.60;4.33;;;11.30;99.90;;;;;;5018521;28;20447;-80
2022/02/09 11:27:24;;;;;;;7.23;3.70;;;11.40;99.90;;;;;;5017840;28;20448;-79
2022/02/09 11:34:53;;;;;;;8.93;3.93;;;11.50;99.90;;;;;;5018704;28;20430;-80
2022/02/09 11:37:32;;;;;;;8.50;4.37;;;11.60;99.90;;;;;;5037686;28;20410;-80
2022/02/09 11:40:01;;;;;;;8.33;3.90;;;11.50;99.90;;;;;;5057469;28;20982;-80
2022/02/09 11:42:41;;;;;;;6.47;3.80;;;11.40;99.90;;;;;;5025330;28;20449;-80
2022/02/09 11:52:04;;;;;;;7.50;4.03;;;11.90;99.90;;;;;;5038366;28;20968;-81
2022/02/09 12:09:01;;;;;;;8.17;3.73;;;12.00;99.90;;;;;;5035790;28;20486;-81
2022/02/09 12:14:18;;;;;;;6.00;3.50;;;12.10;99.90;;;;;;5035805;28;20453;-81
2022/02/09 12:19:51;;;;;;;6.03;3.20;;;11.90;99.90;;;;;;5001586;28;20446;-81
2022/02/09 12:22:24;;;;;;;7.47;3.13;;;12.00;99.90;;;;;;5016799;28;20453;-81
2022/02/09 12:24:57;;;;;;;5.80;3.67;;;12.10;99.90;;;;;;5035459;28;20419;-81
2022/02/09 12:27:23;;;;;;;3.87;2.60;;;12.10;99.90;;;;;;5017812;28;20513;-81
2022/02/09 12:30:00;;;;;;;6.07;2.80;;;12.10;99.90;;;;;;5055146;28;20480;-81
2022/02/09 12:32:35;;;;;;;5.40;3.33;;;12.20;99.90;;;;;;5134249;27;20542;-78
2022/02/09 12:35:06;;;;;;;4.27;3.20;;;12.20;99.90;;;;;;5106141;28;20431;-78
2022/02/09 12:37:37;;;;;;;8.80;3.93;;;12.20;99.90;;;;;;5090299;28;20907;-78
2022/02/09 12:40:11;;;;;;;8.23;3.33;;;12.10;99.90;;;;;;5091803;28;20417;-78
2022/02/09 12:42:38;;;;;;;6.00;3.80;;;12.10;99.90;;;;;;5089938;28;20789;-77
2022/02/09 12:45:11;;;;;;;6.97;3.10;;;12.00;99.90;;;;;;5088634;28;20412;-77
2022/02/09 12:47:51;;;;;;;10.13;3.47;;;11.90;99.90;;;;;;5088027;28;20779;-78
2022/02/09 12:50:24;;;;;;;8.50;3.60;;;11.90;99.90;;;;;;5088417;28;20495;-77
2022/02/09 12:52:52;;;;;;;9.47;3.90;;;11.80;99.90;;;;;;5088354;28;20866;-78
2022/02/09 12:55:21;;;;;;;10.10;4.33;;;11.80;99.90;;;;;;5088673;28;20448;-78
2022/02/09 12:57:55;;;;;;;7.57;3.20;;;11.80;99.90;;;;;;5088260;28;20936;-77
2022/02/09 13:00:24;;;;;;;5.53;3.60;;;11.70;99.90;;;;;;5088605;28;20448;-77
2022/02/09 13:02:51;;;;;;;5.40;3.43;;;11.80;99.90;;;;;;5088485;28;20834;-77
2022/02/09 13:05:17;;;;;;;8.20;3.90;;;11.80;99.90;;;;;;5089054;28;20416;-77
2022/02/09 13:07:56;;;;;;;6.40;4.47;;;11.90;99.90;;;;;;5088377;28;20420;-77
2022/02/09 13:10:23;;;;;;;10.63;3.40;;;12.00;99.90;;;;;;5088529;28;20416;-78
2022/02/09 13:12:49;;;;;;;8.00;3.57;;;12.20;99.90;;;;;;5088653;28;20439;-78
2022/02/09 13:15:21;;;;;;;5.83;3.60;;;12.40;99.90;;;;;;5089091;28;20473;-77
2022/02/09 13:20:52;;;;;;;8.33;3.70;;;12.40;99.90;;;;;;5090367;28;20404;-78
2022/02/09 14:48:59;;;;;;;6.27;2.73;;;12.60;99.90;;;;;;5059442;28;20785;-80
2022/02/09 14:56:49;;;;;;;9.37;2.97;;;12.60;99.90;;;;;;5058997;28;20405;-80
2022/02/09 14:59:22;;;;;;;3.57;2.50;;;12.60;99.90;;;;;;5057783;28;20420;-81
2022/02/09 15:01:58;;;;;;;7.07;2.40;;;12.80;99.90;;;;;;5038945;28;20499;-79
2022/02/09 15:07:25;;;;;;;2.93;1.80;;;12.90;99.90;;;;;;5038423;28;20477;-79
2022/02/09 15:10:06;;;;;;;4.87;2.73;;;12.90;99.90;;;;;;5020545;28;20506;-80
2022/02/09 15:12:52;;;;;;;4.77;2.00;;;12.80;99.90;;;;;;5019684;28;20481;-80
2022/02/09 15:20:50;;;;;;;4.83;1.90;;;13.10;99.90;;;;;;5038598;28;20550;-79
2022/02/09 15:23:18;;;;;;;4.43;2.20;;;13.10;99.90;;;;;;5018956;28;20489;-80
2022/02/09 15:25:44;;;;;;;4.10;2.23;;;13.10;99.90;;;;;;5018576;28;20419;-79
2022/02/09 15:28:11;;;;;;;4.47;2.27;;;12.90;99.90;;;;;;5018706;28;20419;-80
2022/02/09 15:30:49;;;;;;;6.30;2.77;;;12.80;99.90;;;;;;5018212;28;20923;-80
2022/02/09 15:33:21;;;;;;;2.80;1.80;;;12.90;99.90;;;;;;5017899;28;20447;-81
2022/02/09 15:35:52;;;;;;;7.50;2.33;;;12.70;99.90;;;;;;5019577;28;20430;-79
2022/02/09 15:38:23;;;;;;;3.60;2.03;;;12.50;99.90;;;;;;5019309;28;20462;-80
2022/02/09 15:40:58;;;;;;;4.07;2.03;;;12.40;99.90;;;;;;5017826;28;20427;-80
2022/02/09 15:59:55;;;;;;;5.27;2.27;;;11.90;99.90;;;;;;5043337;28;20445;-81
2022/02/09 16:10:37;;;;;;;6.53;2.50;;;11.40;99.90;;;;;;5071253;28;20422;-81
2022/02/09 16:23:58;;;;;;;6.10;2.57;;;10.90;99.90;;;;;;5089961;28;20454;-81
2022/02/09 16:45:18;;;;;;;4.87;2.53;;;10.20;99.90;;;;;;5085872;28;20444;-82
2022/02/09 16:50:16;;;;;;;7.80;2.80;;;10.00;99.90;;;;;;5085122;28;20420;-81
2022/02/09 17:19:02;;;;;;;4.53;2.70;;;8.90;99.90;;;;;;5086445;28;20430;-81
2022/02/09 17:21:31;;;;;;;5.23;2.53;;;8.80;99.90;;;;;;5067947;28;20422;-81
2022/02/09 17:24:01;;;;;;;12.40;5.03;;;8.70;99.90;;;;;;5068803;28;20456;-82
2022/02/09 17:26:28;;;;;;;26.37;16.60;;;8.60;99.90;;;;;;5066901;28;20452;-81
2022/02/09 17:28:59;;;;;;;31.50;15.77;;;8.50;99.90;;;;;;5068558;28;20803;-81
2022/02/09 17:31:56;;;;;;;21.90;11.63;;;8.40;99.90;;;;;;5062480;28;20795;-80
2022/02/09 17:56:05;;;;;;;14.97;7.70;;;7.90;99.90;;;;;;5063364;28;20439;-81
2022/02/09 17:58:38;;;;;;;13.17;8.23;;;7.80;99.90;;;;;;5046475;28;20414;-80
2022/02/09 18:01:05;;;;;;;13.03;7.47;;;7.70;99.90;;;;;;5048659;28;20451;-80
2022/02/09 18:03:31;;;;;;;12.80;7.87;;;7.70;99.90;;;;;;5047513;28;20453;-80
2022/02/09 18:06:09;;;;;;;11.10;8.00;;;7.70;99.90;;;;;;5048242;28;20418;-81
2022/02/09 18:09:24;;;;;;;11.40;7.80;;;7.70;99.90;;;;;;5047629;28;20421;-81
2022/02/09 18:25:17;;;;;;;9.87;8.30;;;7.50;99.90;;;;;;5060764;28;20826;-80
2022/02/09 18:43:16;;;;;;;10.50;7.73;;;7.30;99.90;;;;;;5058789;28;20484;-80
2022/02/09 18:45:51;;;;;;;13.60;8.93;;;7.30;99.90;;;;;;5040224;28;20413;-81
2022/02/09 18:56:47;;;;;;;12.17;7.57;;;7.20;99.90;;;;;;5040995;28;20421;-81
2022/02/09 18:59:28;;;;;;;12.27;8.27;;;7.30;99.90;;;;;;4994426;28;20455;-80
2022/02/09 19:04:46;;;;;;;13.60;9.13;;;7.40;99.90;;;;;;5034220;28;20450;-80
2022/02/09 19:17:56;;;;;;;14.57;8.87;;;7.90;99.90;;;;;;5035391;28;20415;-80
2022/02/09 19:55:53;;;;;;;10.63;8.27;;;8.50;99.90;;;;;;4963390;29;20175;-81
2022/02/09 19:58:23;;;;;;;13.60;9.17;;;8.40;99.90;;;;;;4959692;28;20438;-81
2022/02/09 20:00:49;;;;;;;15.53;8.73;;;8.30;99.90;;;;;;5009551;28;21007;-80
2022/02/09 20:03:16;;;;;;;13.33;8.13;;;8.30;99.90;;;;;;5046737;28;20572;-81
2022/02/09 20:05:42;;;;;;;14.00;8.80;;;8.20;99.90;;;;;;5042388;28;20195;-80
2022/02/09 20:08:07;;;;;;;15.07;9.60;;;8.10;99.90;;;;;;5044583;28;20774;-80
2022/02/09 20:10:34;;;;;;;12.40;8.03;;;8.10;99.90;;;;;;5045207;28;20481;-80
2022/02/09 20:13:00;;;;;;;10.70;8.97;;;8.10;99.90;;;;;;5045078;28;20202;-80
2022/02/09 20:15:26;;;;;;;14.50;7.37;;;8.10;99.90;;;;;;5045017;28;20418;-80
2022/02/09 20:17:52;;;;;;;12.37;8.80;;;8.20;99.90;;;;;;5043736;28;20202;-81
2022/02/09 20:20:25;;;;;;;14.53;10.53;;;8.20;99.90;;;;;;5041915;28;20480;-80
2022/02/09 20:22:51;;;;;;;14.47;8.90;;;8.30;99.90;;;;;;5036823;28;20954;-81
2022/02/09 20:25:19;;;;;;;21.47;9.47;;;8.40;99.90;;;;;;5040143;28;20425;-81
2022/02/09 20:27:46;;;;;;;14.23;9.07;;;8.50;99.90;;;;;;5039127;28;20488;-81
2022/02/09 20:30:15;;;;;;;15.20;9.70;;;8.60;99.90;;;;;;5038964;23;20498;-84
2022/02/09 20:32:47;;;;;;;17.97;8.40;;;8.60;99.90;;;;;;5033172;28;20629;-82
2022/02/09 20:35:15;;;;;;;13.10;8.23;;;8.70;99.90;;;;;;5012577;28;20795;-83
2022/02/09 20:37:45;;;;;;;16.80;8.10;;;8.70;99.90;;;;;;5012469;28;20443;-82
2022/02/09 20:40:18;;;;;;;16.13;9.13;;;8.80;99.90;;;;;;5014228;28;20996;-82
2022/02/09 20:42:52;;;;;;;14.93;8.60;;;8.80;99.90;;;;;;5013147;28;20457;-82
2022/02/09 20:45:27;;;;;;;12.47;8.60;;;8.80;99.90;;;;;;5014935;28;20426;-81
2022/02/09 20:48:06;;;;;;;13.27;8.37;;;8.80;99.90;;;;;;5032474;28;20427;-82
2022/02/09 20:50:35;;;;;;;14.70;8.00;;;8.80;99.90;;;;;;5031245;28;20529;-82
2022/02/09 20:53:01;;;;;;;12.63;7.70;;;8.90;99.90;;;;;;5028814;28;20431;-82
2022/02/09 20:55:29;;;;;;;16.13;8.43;;;8.90;99.90;;;;;;5014684;28;20440;-82
2022/02/09 20:57:55;;;;;;;12.07;7.50;;;9.00;99.90;;;;;;5017440;28;20427;-83
2022/02/09 21:00:28;;;;;;;14.53;7.00;;;8.90;99.90;;;;;;5017642;28;20434;-82
2022/02/09 21:05:42;;;;;;;9.20;7.33;;;9.00;99.90;;;;;;5031225;28;20475;-83
2022/02/09 21:13:13;;;;;;;11.17;7.50;;;9.20;99.90;;;;;;5035891;28;20430;-82
2022/02/09 21:16:10;;;;;;;11.77;8.10;;;9.20;99.90;;;;;;5017918;28;20839;-82
2022/02/09 21:27:14;;;;;;;13.90;8.23;;;9.20;99.90;;;;;;5035208;28;20403;-82
2022/02/09 21:31:08;;;;;;;15.17;8.83;;;9.10;99.90;;;;;;5034888;28;20466;-82
2022/02/09 21:57:38;;;;;;;19.63;8.73;;;8.80;99.90;;;;;;5014838;28;20391;-81
2022/02/09 22:16:29;;;;;;;11.23;8.30;;;8.20;99.90;;;;;;5014655;28;20427;-81
2022/02/09 22:26:47;;;;;;;15.60;10.47;;;7.80;99.90;;;;;;5014680;28;20199;-81
2022/02/09 22:50:59;;;;;;;14.13;9.43;;;7.00;99.90;;;;;;5013935;28;20458;-80
2022/02/09 22:56:09;;;;;;;12.67;8.30;;;6.80;99.90;;;;;;5014200;28;20426;-81
2022/02/09 22:58:35;;;;;;;15.30;8.07;;;6.80;99.90;;;;;;5013499;28;20432;-80
2022/02/09 23:01:21;;;;;;;12.40;8.63;;;6.70;99.90;;;;;;5013749;28;20481;-81
2022/02/09 23:06:44;;;;;;;13.40;7.83;;;6.60;99.90;;;;;;5013661;28;20446;-81
2022/02/09 23:55:39;;;;;;;15.13;8.00;;;6.00;99.90;;;;;;5019049;28;20446;-83
